Time;durP1;ratioP1;P1;durP2;ratioP2;P2;SDS_P1;SDS_P2;PMS_P1;PMS_P2;Temp;Humidity;BMP_temperature;BMP_pressure;BME280_temperature;BME280_humidity;BME280_pressure;Samples;Min_cycle;Max_cycle;Signal;HPM_P1;HPM_P2
2023/05/14 00:02:06;;;;;;;2.60;1.70;;;;;;;19.58;65.22;100326.16;5052449;28;20183;-65
2023/05/14 00:04:31;;;;;;;6.77;2.60;;;;;;;19.60;65.18;100326.59;5051200;28;20670;-65
2023/05/14 00:06:57;;;;;;;3.67;1.83;;;;;;;19.59;65.19;100330.69;5050345;28;20219;-65
2023/05/14 00:09:23;;;;;;;2.33;1.77;;;;;;;19.59;65.20;100316.34;5026291;28;20239;-65
2023/05/14 00:11:48;;;;;;;2.43;1.77;;;;;;;19.58;65.26;100312.69;5052704;28;20164;-65
2023/05/14 00:14:14;;;;;;;3.17;2.20;;;;;;;19.57;65.54;100311.00;5051834;28;20203;-65
2023/05/14 00:16:39;;;;;;;2.63;1.93;;;;;;;19.58;65.43;100311.84;5051194;28;20510;-65
2023/05/14 00:19:05;;;;;;;2.70;1.73;;;;;;;19.57;65.39;100308.16;5035896;28;20187;-65
2023/05/14 00:21:31;;;;;;;2.20;1.70;;;;;;;19.59;65.54;100310.63;5033583;28;20160;-65
2023/05/14 00:23:56;;;;;;;2.50;1.90;;;;;;;19.57;65.29;100311.00;5035388;28;20179;-65
2023/05/14 00:26:22;;;;;;;2.47;1.80;;;;;;;19.57;65.58;100305.28;5049758;28;20168;-65
2023/05/14 00:28:48;;;;;;;2.30;1.70;;;;;;;19.57;65.54;100302.41;5032468;28;20176;-65
2023/05/14 00:31:13;;;;;;;2.80;2.10;;;;;;;19.57;65.51;100299.56;5038044;28;20191;-65
2023/05/14 00:33:38;;;;;;;2.80;1.90;;;;;;;19.56;65.72;100291.38;5038144;28;20742;-65
2023/05/14 00:36:04;;;;;;;2.50;1.93;;;;;;;19.56;65.88;100291.38;5040152;28;20187;-65
2023/05/14 00:38:29;;;;;;;2.17;1.70;;;;;;;19.56;65.60;100292.19;5056055;28;20164;-65
2023/05/14 00:40:55;;;;;;;2.73;1.80;;;;;;;19.57;65.75;100293.03;5055040;28;20192;-65
2023/05/14 00:43:21;;;;;;;2.87;2.10;;;;;;;19.56;65.61;100292.19;5037842;28;20238;-65
2023/05/14 00:45:48;;;;;;;3.23;1.80;;;;;;;19.55;65.66;100284.81;5037736;28;20620;-65
2023/05/14 00:48:14;;;;;;;2.40;1.60;;;;;;;19.55;65.76;100286.84;5038219;28;20986;-66
2023/05/14 00:50:40;;;;;;;2.80;2.13;;;;;;;19.55;65.59;100279.09;5051513;28;20460;-65
2023/05/14 00:53:09;;;;;;;2.83;1.90;;;;;;;19.55;65.60;100286.84;5039097;28;20180;-65
2023/05/14 00:55:35;;;;;;;2.40;1.73;;;;;;;19.55;65.60;100284.81;5047602;28;20263;-65
2023/05/14 00:58:00;;;;;;;2.60;1.53;;;;;;;19.54;65.65;100288.88;5055814;28;20939;-65
2023/05/14 01:00:26;;;;;;;2.40;1.83;;;;;;;19.54;65.63;100288.88;5037804;28;20430;-65
2023/05/14 01:02:51;;;;;;;2.67;2.07;;;;;;;19.54;65.71;100291.75;5057134;28;20202;-65
2023/05/14 01:05:17;;;;;;;2.40;1.80;;;;;;;19.52;65.74;100285.56;5037452;28;20191;-65
2023/05/14 01:07:48;;;;;;;3.07;1.97;;;;;;;19.53;66.06;100281.53;5057403;28;20268;-65
2023/05/14 01:10:18;;;;;;;2.83;1.73;;;;;;;19.52;65.75;100279.84;5037214;28;20226;-65
2023/05/14 01:12:54;;;;;;;2.80;1.80;;;;;;;19.54;65.99;100285.19;5037230;28;20410;-65
2023/05/14 01:15:24;;;;;;;1.97;1.40;;;;;;;19.54;65.74;100279.47;5036695;28;20491;-65
2023/05/14 01:17:54;;;;;;;3.50;2.43;;;;;;;19.55;66.03;100281.09;5020953;28;20406;-65
2023/05/14 01:20:20;;;;;;;3.03;1.97;;;;;;;19.54;66.00;100282.31;5035045;28;20413;-65
2023/05/14 01:22:45;;;;;;;3.47;2.20;;;;;;;19.52;65.85;100279.84;5020443;28;20454;-66
2023/05/14 01:25:11;;;;;;;2.20;1.80;;;;;;;19.51;65.74;100283.94;5036749;28;20156;-65
2023/05/14 01:27:48;;;;;;;2.37;1.77;;;;;;;19.52;65.80;100281.91;5053742;28;20317;-65
2023/05/14 01:30:17;;;;;;;2.40;1.87;;;;;;;19.52;65.81;100276.97;5050303;28;20250;-66
2023/05/14 01:32:43;;;;;;;3.07;2.20;;;;;;;19.52;65.84;100276.97;5053664;28;20879;-65
2023/05/14 01:35:09;;;;;;;3.10;2.03;;;;;;;19.52;66.46;100273.31;5034566;28;20809;-65
2023/05/14 01:37:34;;;;;;;2.93;2.10;;;;;;;19.52;65.95;100284.78;5035696;28;20418;-65
2023/05/14 01:40:00;;;;;;;2.90;2.20;;;;;;;19.51;65.81;100278.19;5018377;28;20168;-65
2023/05/14 01:42:25;;;;;;;2.40;1.87;;;;;;;19.51;65.82;100283.94;5052115;28;20187;-65
2023/05/14 01:44:50;;;;;;;3.77;2.00;;;;;;;19.49;65.73;100280.63;5018208;28;20179;-65
2023/05/14 01:47:16;;;;;;;3.47;1.80;;;;;;;19.51;65.80;100288.84;5017781;28;20553;-65
2023/05/14 01:49:41;;;;;;;2.67;2.00;;;;;;;19.50;66.13;100281.44;5053131;28;20548;-65
2023/05/14 01:52:07;;;;;;;3.10;2.00;;;;;;;19.51;66.07;100294.56;5052493;28;20190;-65
2023/05/14 01:54:33;;;;;;;4.20;2.00;;;;;;;19.51;66.13;100295.38;5052035;28;20184;-65
2023/05/14 01:56:58;;;;;;;2.57;2.03;;;;;;;19.51;66.37;100294.56;5035334;28;20338;-65
2023/05/14 01:59:23;;;;;;;3.40;2.00;;;;;;;19.50;66.04;100290.88;5034960;28;20180;-65
2023/05/14 02:01:49;;;;;;;2.90;2.20;;;;;;;19.49;66.21;100292.09;5019259;28;20171;-65
2023/05/14 02:04:14;;;;;;;3.73;1.80;;;;;;;19.49;66.10;100292.09;5032583;28;20160;-65
2023/05/14 02:06:40;;;;;;;2.53;1.70;;;;;;;19.50;65.93;100292.91;5053569;28;20477;-65
2023/05/14 02:09:05;;;;;;;2.80;2.10;;;;;;;19.50;66.04;100290.03;5053499;28;20219;-65
2023/05/14 02:11:31;;;;;;;2.30;1.70;;;;;;;19.49;66.09;100286.38;5052595;28;20218;-65
2023/05/14 02:13:56;;;;;;;2.33;1.70;;;;;;;19.49;65.96;100291.25;5053205;28;20187;-65
2023/05/14 02:16:22;;;;;;;2.50;1.80;;;;;;;19.49;65.96;100292.09;5033525;28;20183;-65
2023/05/14 02:18:47;;;;;;;2.47;1.77;;;;;;;19.49;66.22;100283.50;5016528;28;20664;-65
2023/05/14 02:21:12;;;;;;;2.80;1.90;;;;;;;19.49;66.23;100285.53;5016122;28;20169;-65
2023/05/14 02:23:38;;;;;;;2.60;1.93;;;;;;;19.47;66.19;100277.31;5045697;28;20194;-65
2023/05/14 02:26:03;;;;;;;2.10;1.70;;;;;;;19.47;66.16;100271.59;5053195;28;20176;-65
2023/05/14 02:28:29;;;;;;;2.60;1.87;;;;;;;19.49;65.94;100269.19;5052568;28;20187;-65
2023/05/14 02:30:59;;;;;;;2.40;1.77;;;;;;;19.48;65.88;100270.41;5033868;28;20253;-65
2023/05/14 02:33:24;;;;;;;2.70;1.90;;;;;;;19.49;65.65;100276.94;5035545;28;20171;-65
2023/05/14 02:35:50;;;;;;;2.30;1.80;;;;;;;19.48;66.18;100278.16;5052049;28;20434;-65
2023/05/14 02:38:15;;;;;;;4.13;2.40;;;;;;;19.47;66.32;100268.72;5035264;28;20160;-65
2023/05/14 02:40:41;;;;;;;2.93;1.80;;;;;;;19.48;66.63;100273.28;5033557;28;20187;-66
2023/05/14 02:43:06;;;;;;;2.60;1.90;;;;;;;19.48;65.96;100266.72;5033255;28;20596;-65
2023/05/14 02:45:31;;;;;;;3.50;2.10;;;;;;;19.46;66.29;100269.16;5014757;28;20632;-65
2023/05/14 02:47:57;;;;;;;2.77;1.90;;;;;;;19.48;66.30;100266.72;5032944;28;20176;-65
2023/05/14 02:50:22;;;;;;;2.73;1.73;;;;;;;19.47;66.23;100271.59;5005653;28;20277;-65
2023/05/14 02:52:48;;;;;;;2.27;1.80;;;;;;;19.46;66.14;100269.94;5018086;28;20651;-65
2023/05/14 02:55:13;;;;;;;2.80;1.73;;;;;;;19.47;66.21;100267.94;5051176;28;20168;-65
2023/05/14 02:57:39;;;;;;;2.30;1.77;;;;;;;19.47;66.00;100267.94;5034922;28;20686;-65
2023/05/14 03:00:05;;;;;;;2.53;1.67;;;;;;;19.45;66.07;100265.44;5052846;28;20171;-66
2023/05/14 03:02:30;;;;;;;2.27;1.63;;;;;;;19.46;66.41;100269.94;5033905;28;20647;-65
2023/05/14 03:04:56;;;;;;;2.60;1.87;;;;;;;19.46;65.86;100272.81;5036271;28;20412;-65
2023/05/14 03:07:21;;;;;;;2.77;2.10;;;;;;;19.45;66.26;100267.47;5052950;28;20167;-65
2023/05/14 03:09:47;;;;;;;2.87;2.00;;;;;;;19.45;65.88;100274.03;5042781;28;20220;-65
2023/05/14 03:12:13;;;;;;;2.53;1.90;;;;;;;19.46;66.21;100278.53;5051883;28;20178;-65
2023/05/14 03:14:47;;;;;;;3.00;1.97;;;;;;;19.45;66.17;100262.59;5052539;28;20191;-65
2023/05/14 03:17:13;;;;;;;2.73;1.77;;;;;;;19.45;65.84;100265.44;5047818;28;20457;-65
2023/05/14 03:19:38;;;;;;;2.97;1.93;;;;;;;19.45;65.99;100261.75;5032621;28;20433;-65
2023/05/14 03:22:04;;;;;;;2.53;1.70;;;;;;;19.45;65.94;100271.16;5050139;28;20184;-65
2023/05/14 03:24:30;;;;;;;2.80;2.00;;;;;;;19.45;65.88;100273.19;5049674;28;20241;-65
2023/05/14 03:26:55;;;;;;;10.53;1.50;;;;;;;19.45;66.07;100265.44;5049878;28;20184;-65
2023/05/14 03:29:21;;;;;;;2.40;1.80;;;;;;;19.45;66.06;100262.59;5050326;28;20499;-65
2023/05/14 03:31:46;;;;;;;2.90;2.10;;;;;;;19.44;66.20;100260.94;5049808;28;20195;-65
2023/05/14 03:34:12;;;;;;;1.93;1.40;;;;;;;19.44;65.78;100258.06;5048410;28;20200;-65
2023/05/14 03:36:38;;;;;;;2.17;1.60;;;;;;;19.44;66.10;100260.94;5034276;28;20187;-65
2023/05/14 03:39:05;;;;;;;3.03;2.07;;;;;;;19.44;66.19;100258.06;5031997;28;20157;-65
2023/05/14 03:41:31;;;;;;;2.30;1.60;;;;;;;19.45;66.13;100262.59;5030104;28;20411;-65
2023/05/14 03:43:56;;;;;;;2.33;1.67;;;;;;;19.44;66.04;100254.38;5032794;28;20432;-65
2023/05/14 03:46:22;;;;;;;2.50;1.87;;;;;;;19.43;66.18;100256.44;5049014;28;20558;-66
2023/05/14 03:48:47;;;;;;;2.50;1.80;;;;;;;19.44;66.29;100260.94;5050109;28;20175;-65
2023/05/14 03:51:13;;;;;;;2.50;1.80;;;;;;;19.43;66.14;100253.56;5050296;28;20204;-66
2023/05/14 03:53:38;;;;;;;2.10;1.50;;;;;;;19.43;66.16;100252.72;5050775;28;20188;-66
2023/05/14 03:56:04;;;;;;;2.63;1.80;;;;;;;19.43;66.09;100252.72;5048375;28;20163;-65
2023/05/14 03:58:29;;;;;;;2.83;1.90;;;;;;;19.43;65.93;100261.31;5047720;28;20187;-65
2023/05/14 04:00:55;;;;;;;4.07;1.83;;;;;;;19.42;65.97;100257.63;5031499;28;20203;-65
2023/05/14 04:03:20;;;;;;;3.10;1.77;;;;;;;19.42;66.10;100260.47;5034553;28;20165;-65
2023/05/14 04:05:46;;;;;;;3.00;2.27;;;;;;;19.43;65.99;100253.56;5048672;28;20222;-65
2023/05/14 04:08:11;;;;;;;3.63;1.73;;;;;;;19.42;66.20;100260.47;5047638;28;20167;-65
2023/05/14 04:10:36;;;;;;;10.17;1.90;;;;;;;19.43;66.01;100259.28;5047722;28;20236;-65
2023/05/14 04:13:02;;;;;;;2.17;1.30;;;;;;;19.42;66.11;100263.34;5047606;28;20194;-65
2023/05/14 04:15:27;;;;;;;2.47;1.90;;;;;;;19.42;66.01;100269.06;5048819;28;20160;-65
2023/05/14 04:17:53;;;;;;;2.33;1.63;;;;;;;19.42;66.15;100269.06;5030521;28;20160;-65
2023/05/14 04:20:18;;;;;;;3.70;2.00;;;;;;;19.42;66.12;100263.34;5049109;28;20184;-65
2023/05/14 04:22:44;;;;;;;2.70;1.60;;;;;;;19.42;66.28;100266.22;5048115;28;20198;-66
2023/05/14 04:25:09;;;;;;;3.20;1.73;;;;;;;19.41;66.33;100264.56;5020639;28;20842;-65
2023/05/14 04:27:35;;;;;;;2.87;2.13;;;;;;;19.41;66.21;100260.91;5032524;28;20180;-65
2023/05/14 04:30:00;;;;;;;2.27;1.70;;;;;;;19.40;66.11;100268.66;5032723;28;20233;-66
2023/05/14 04:32:26;;;;;;;2.97;2.00;;;;;;;19.42;66.05;100274.78;5015439;28;20195;-65
2023/05/14 04:34:51;;;;;;;2.37;1.83;;;;;;;19.41;66.19;100266.63;5032734;28;20180;-65
2023/05/14 04:37:17;;;;;;;2.20;1.63;;;;;;;19.40;66.14;100265.78;5049526;28;20188;-65
2023/05/14 04:39:42;;;;;;;3.00;2.00;;;;;;;19.40;66.16;100262.91;5032562;28;20175;-65
2023/05/14 04:42:08;;;;;;;3.73;1.90;;;;;;;19.40;66.31;100262.09;5032440;28;20182;-66
2023/05/14 04:44:34;;;;;;;2.00;1.50;;;;;;;19.41;66.22;100267.44;5016732;28;20259;-65
2023/05/14 04:46:59;;;;;;;2.40;1.60;;;;;;;19.40;66.57;100260.06;5033015;28;20175;-65
2023/05/14 04:49:25;;;;;;;3.47;1.97;;;;;;;19.40;66.32;100265.78;5050669;28;20462;-65
2023/05/14 04:51:50;;;;;;;2.70;1.70;;;;;;;19.39;66.34;100264.13;5049709;28;20182;-66
2023/05/14 04:54:16;;;;;;;2.30;1.67;;;;;;;19.40;66.31;100264.94;5016656;28;20182;-65
2023/05/14 04:56:41;;;;;;;2.60;1.83;;;;;;;19.40;66.19;100267.81;5032187;28;20187;-66
2023/05/14 04:59:06;;;;;;;3.07;1.37;;;;;;;19.39;66.34;100260.44;5051456;28;20709;-65
2023/05/14 05:01:32;;;;;;;2.63;1.60;;;;;;;19.40;66.13;100270.66;5031814;28;20183;-65
2023/05/14 05:03:57;;;;;;;2.63;1.90;;;;;;;19.39;66.02;100264.13;5050954;28;20160;-66
2023/05/14 05:06:23;;;;;;;2.60;1.70;;;;;;;19.39;66.27;100264.13;5015687;28;20683;-66
2023/05/14 05:08:48;;;;;;;2.40;1.70;;;;;;;19.39;66.13;100263.31;5032931;28;20600;-65
2023/05/14 05:11:13;;;;;;;3.20;1.80;;;;;;;19.39;66.16;100269.88;5048727;28;20195;-65
2023/05/14 05:13:39;;;;;;;2.03;1.40;;;;;;;19.38;66.27;100268.22;5031497;28;20179;-65
2023/05/14 05:16:05;;;;;;;2.33;1.50;;;;;;;19.38;66.09;100268.22;5032847;28;20183;-65
2023/05/14 05:18:30;;;;;;;2.40;1.77;;;;;;;19.39;66.16;100257.56;5053750;28;20215;-65
2023/05/14 05:20:55;;;;;;;2.43;1.53;;;;;;;19.39;66.25;100260.44;5026082;28;20180;-65
2023/05/14 05:23:21;;;;;;;2.37;1.70;;;;;;;19.38;66.13;100268.22;5054056;28;20183;-65
2023/05/14 05:25:46;;;;;;;2.33;1.73;;;;;;;19.38;66.20;100268.22;5018813;28;20192;-65
2023/05/14 05:28:12;;;;;;;2.30;1.57;;;;;;;19.38;66.12;100268.22;5036296;28;20157;-66
2023/05/14 05:30:37;;;;;;;2.20;1.70;;;;;;;19.38;66.16;100267.38;5053751;28;20195;-65
2023/05/14 05:33:03;;;;;;;2.07;1.60;;;;;;;19.39;66.07;100266.16;5052894;28;20819;-66
2023/05/14 05:35:28;;;;;;;2.73;1.80;;;;;;;19.37;66.26;100269.41;5030430;28;20175;-65
2023/05/14 05:37:54;;;;;;;2.53;1.60;;;;;;;19.38;65.93;100273.09;5032017;28;20202;-65
2023/05/14 05:40:19;;;;;;;2.20;1.43;;;;;;;19.38;66.17;100273.09;5032411;28;20173;-66
2023/05/14 05:42:45;;;;;;;3.00;2.10;;;;;;;19.38;66.29;100278.84;5007488;28;20190;-66
2023/05/14 05:45:10;;;;;;;2.20;1.50;;;;;;;19.38;66.16;100268.22;5045946;28;20191;-66
2023/05/14 05:47:35;;;;;;;2.90;1.97;;;;;;;19.38;66.20;100278.84;5052317;28;20172;-65
2023/05/14 05:50:01;;;;;;;2.40;1.70;;;;;;;19.38;66.04;100270.25;5052000;28;20203;-65
2023/05/14 05:52:27;;;;;;;2.20;1.50;;;;;;;19.38;66.15;100273.94;5034782;28;20156;-65
2023/05/14 05:54:52;;;;;;;2.07;1.60;;;;;;;19.38;66.31;100273.09;5033564;28;20179;-65
2023/05/14 05:57:17;;;;;;;3.90;1.60;;;;;;;19.37;66.15;100272.28;5052495;28;20195;-65
2023/05/14 05:59:43;;;;;;;2.80;1.50;;;;;;;19.36;66.06;100267.75;5054197;28;20511;-65
2023/05/14 06:02:08;;;;;;;2.47;1.53;;;;;;;19.37;66.19;100278.00;5035324;28;20171;-65
2023/05/14 06:04:34;;;;;;;2.27;1.50;;;;;;;19.38;66.11;100273.09;5051968;28;20167;-65
2023/05/14 06:06:59;;;;;;;2.17;1.50;;;;;;;19.38;66.10;100275.97;5035110;28;20200;-65
2023/05/14 06:09:25;;;;;;;2.20;1.40;;;;;;;19.37;66.24;100272.28;5040039;28;20231;-65
2023/05/14 06:11:50;;;;;;;2.60;1.77;;;;;;;19.36;66.47;100267.75;5034657;28;20176;-65
2023/05/14 06:14:15;;;;;;;2.03;1.57;;;;;;;19.37;66.25;100275.13;5052263;28;20206;-66
2023/05/14 06:16:41;;;;;;;2.40;1.53;;;;;;;19.38;65.95;100275.97;5038809;28;20189;-66
2023/05/14 06:19:07;;;;;;;2.60;1.70;;;;;;;19.37;66.23;100277.19;5035370;28;20176;-65
2023/05/14 06:21:32;;;;;;;2.27;1.67;;;;;;;19.37;66.18;100275.13;5050885;28;20191;-65
2023/05/14 06:23:58;;;;;;;2.80;2.00;;;;;;;19.37;66.24;100283.72;5053228;28;20418;-65
2023/05/14 06:26:23;;;;;;;2.40;1.70;;;;;;;19.37;66.31;100272.28;5051790;28;20214;-65
2023/05/14 06:28:49;;;;;;;2.10;1.40;;;;;;;19.37;66.11;100278.00;5034977;28;20225;-65
2023/05/14 06:31:14;;;;;;;2.30;1.60;;;;;;;19.37;66.24;100274.31;5045734;28;20278;-65
2023/05/14 06:33:39;;;;;;;2.27;1.63;;;;;;;19.38;66.13;100273.09;5050075;28;20183;-66
2023/05/14 06:36:06;;;;;;;3.43;1.73;;;;;;;19.39;66.13;100271.88;5051354;28;20179;-65
2023/05/14 06:38:31;;;;;;;2.10;1.40;;;;;;;19.39;66.08;100264.13;5052342;28;20508;-65
2023/05/14 06:40:57;;;;;;;2.10;1.57;;;;;;;19.39;66.21;100264.13;5052195;28;20422;-65
2023/05/14 06:43:22;;;;;;;2.40;1.50;;;;;;;19.40;66.28;100264.94;5049397;28;20180;-65
2023/05/14 06:45:48;;;;;;;3.00;2.13;;;;;;;19.40;66.25;100265.78;5045727;28;20181;-65
2023/05/14 06:48:14;;;;;;;2.33;1.50;;;;;;;19.40;66.20;100262.91;5033778;28;20172;-66
2023/05/14 06:50:39;;;;;;;6.83;1.70;;;;;;;19.39;66.27;100263.31;5051973;28;20521;-65
2023/05/14 06:53:05;;;;;;;2.67;2.10;;;;;;;19.38;66.36;100259.63;5052078;28;20221;-65
2023/05/14 06:55:30;;;;;;;2.43;1.70;;;;;;;19.38;66.23;100267.38;5050921;28;20256;-66
2023/05/14 06:57:56;;;;;;;2.20;1.50;;;;;;;19.37;66.38;100262.88;5052222;28;20183;-66
2023/05/14 07:00:21;;;;;;;2.50;1.70;;;;;;;19.38;66.16;100262.50;5050363;28;20176;-66
2023/05/14 07:02:47;;;;;;;2.27;1.70;;;;;;;19.38;66.16;100255.94;5044098;28;20180;-66
2023/05/14 07:05:12;;;;;;;2.03;1.43;;;;;;;19.37;66.27;100260.81;5032545;28;20185;-66
2023/05/14 07:07:38;;;;;;;2.30;1.70;;;;;;;19.38;66.35;100261.66;5051850;28;20184;-66
2023/05/14 07:10:04;;;;;;;2.40;1.87;;;;;;;19.37;66.30;100263.69;5049618;28;20602;-66
2023/05/14 07:12:29;;;;;;;2.20;1.40;;;;;;;19.38;66.15;100258.78;5049344;28;20176;-66
2023/05/14 07:14:55;;;;;;;2.27;1.70;;;;;;;19.38;66.45;100265.34;5049623;28;20980;-66
2023/05/14 07:17:21;;;;;;;2.77;1.93;;;;;;;19.37;66.37;100266.53;5049634;28;20180;-66
2023/05/14 07:19:46;;;;;;;2.47;1.70;;;;;;;19.38;66.34;100268.22;5051125;28;20438;-66
2023/05/14 07:22:12;;;;;;;3.47;1.70;;;;;;;19.38;66.19;100256.78;5032200;28;20183;-66
2023/05/14 07:24:37;;;;;;;2.13;1.57;;;;;;;19.37;66.38;100252.22;5051078;28;20168;-66
2023/05/14 07:27:03;;;;;;;2.47;1.73;;;;;;;19.36;66.20;100259.19;5043266;28;20187;-66
2023/05/14 07:29:29;;;;;;;3.57;2.00;;;;;;;19.38;66.29;100253.06;5030086;28;20320;-67
2023/05/14 07:31:54;;;;;;;2.23;1.57;;;;;;;19.38;66.33;100255.94;5030045;28;20867;-66
2023/05/14 07:34:20;;;;;;;2.23;1.50;;;;;;;19.37;66.46;100255.09;5039640;28;20662;-66
2023/05/14 07:36:45;;;;;;;2.83;1.80;;;;;;;19.38;66.25;100248.19;5050661;28;20187;-66
2023/05/14 07:39:11;;;;;;;2.40;1.80;;;;;;;19.39;66.42;100255.56;5050310;28;20164;-67
2023/05/14 07:41:36;;;;;;;2.70;1.70;;;;;;;19.39;66.23;100249.81;5049319;28;20179;-66
2023/05/14 07:44:01;;;;;;;2.13;1.50;;;;;;;19.38;66.50;100244.47;5041483;28;20184;-66
2023/05/14 07:46:27;;;;;;;2.17;1.63;;;;;;;19.39;66.17;100240.41;5016521;28;20192;-66
2023/05/14 07:48:52;;;;;;;1.97;1.47;;;;;;;19.38;66.19;100239.59;5014390;28;20199;-66
2023/05/14 07:51:18;;;;;;;2.07;1.30;;;;;;;19.39;66.12;100243.25;5030274;28;20193;-67
2023/05/14 07:53:43;;;;;;;2.73;1.73;;;;;;;19.37;66.55;100243.63;5041730;28;20187;-66
2023/05/14 07:56:09;;;;;;;2.37;1.60;;;;;;;19.39;66.26;100240.41;5049405;28;20211;-64
2023/05/14 07:58:35;;;;;;;2.37;1.53;;;;;;;19.39;66.32;100244.09;5050397;28;21070;-65
2023/05/14 08:01:02;;;;;;;2.43;1.70;;;;;;;19.39;66.43;100240.41;5048752;28;20192;-65
2023/05/14 08:03:28;;;;;;;2.60;1.90;;;;;;;19.39;66.21;100241.22;5050917;28;20179;-65
2023/05/14 08:05:53;;;;;;;2.27;1.53;;;;;;;19.40;66.32;100242.03;5049011;28;20862;-65
2023/05/14 08:08:18;;;;;;;2.83;1.50;;;;;;;19.39;66.08;100241.22;5047340;28;20190;-65
2023/05/14 08:10:44;;;;;;;2.30;1.63;;;;;;;19.40;66.21;100247.75;5060386;28;20276;-65
2023/05/14 08:13:09;;;;;;;2.30;1.73;;;;;;;19.39;66.03;100238.38;5058250;28;20206;-65
2023/05/14 08:15:35;;;;;;;2.00;1.40;;;;;;;19.40;66.29;100242.03;5031337;28;20183;-65
2023/05/14 08:18:02;;;;;;;2.47;1.43;;;;;;;19.38;66.36;100233.88;5056512;28;20183;-65
2023/05/14 08:20:29;;;;;;;2.10;1.50;;;;;;;19.40;66.14;100239.19;5032363;28;20175;-65
2023/05/14 08:22:56;;;;;;;3.00;1.77;;;;;;;19.39;66.12;100240.41;5049335;28;20442;-65
2023/05/14 08:25:21;;;;;;;3.40;1.57;;;;;;;19.40;66.12;100234.28;5016513;28;20514;-65
2023/05/14 08:27:47;;;;;;;2.40;1.60;;;;;;;19.40;66.33;100228.56;5052229;28;20417;-65
2023/05/14 08:30:13;;;;;;;2.30;1.57;;;;;;;19.40;66.23;100231.44;5051594;28;20219;-65
2023/05/14 08:32:38;;;;;;;2.10;1.30;;;;;;;19.40;66.04;100231.44;5015174;28;20227;-65
2023/05/14 08:35:04;;;;;;;3.23;1.60;;;;;;;19.41;66.32;100226.53;5022712;28;20879;-65
2023/05/14 08:37:29;;;;;;;2.33;1.80;;;;;;;19.40;66.19;100224.88;5031118;28;20264;-65
2023/05/14 08:39:55;;;;;;;2.27;1.53;;;;;;;19.40;66.14;100225.69;5049491;28;20167;-65
2023/05/14 08:42:20;;;;;;;2.00;1.40;;;;;;;19.40;66.05;100231.44;5045424;28;20176;-65
2023/05/14 08:45:00;;;;;;;1.97;1.27;;;;;;;19.40;66.37;100227.72;5014693;28;20218;-65
2023/05/14 08:47:26;;;;;;;2.00;1.40;;;;;;;19.41;66.25;100221.63;5017558;28;20211;-65
2023/05/14 08:50:00;;;;;;;2.97;2.23;;;;;;;19.41;66.16;100221.63;5031373;28;21012;-65
2023/05/14 08:52:25;;;;;;;2.37;1.40;;;;;;;19.40;66.47;100219.97;5034568;28;20204;-65
2023/05/14 08:54:50;;;;;;;2.23;1.30;;;;;;;19.40;65.59;100219.97;5035563;28;20800;-65
2023/05/14 08:57:16;;;;;;;2.20;1.43;;;;;;;19.41;66.10;100215.91;5056020;28;20268;-65
2023/05/14 08:59:41;;;;;;;2.40;1.77;;;;;;;19.41;66.19;100206.50;5054284;28;20184;-65
2023/05/14 09:02:07;;;;;;;2.80;1.80;;;;;;;19.41;66.28;100215.09;5054091;28;20278;-65
2023/05/14 09:04:32;;;;;;;1.97;1.40;;;;;;;19.41;66.23;100207.31;5019467;28;20229;-65
2023/05/14 09:06:59;;;;;;;2.13;1.47;;;;;;;19.41;65.99;100206.50;5053083;28;20647;-66
2023/05/14 09:09:24;;;;;;;2.43;1.43;;;;;;;19.40;66.22;100204.81;5017794;28;20327;-65
2023/05/14 09:11:51;;;;;;;2.10;1.60;;;;;;;19.41;66.30;100207.31;5034939;28;20410;-66
2023/05/14 09:14:16;;;;;;;3.07;1.50;;;;;;;19.41;66.35;100200.78;5035017;28;20195;-66
2023/05/14 09:16:46;;;;;;;2.93;1.60;;;;;;;19.40;66.20;100197.06;5034482;28;20862;-66
2023/05/14 09:19:12;;;;;;;2.90;1.73;;;;;;;19.41;66.25;100193.00;5034869;28;20527;-66
2023/05/14 09:21:37;;;;;;;2.10;1.50;;;;;;;19.40;66.48;100191.34;5035210;28;20446;-67
2023/05/14 09:24:03;;;;;;;2.60;1.80;;;;;;;19.42;66.07;100190.97;5002299;28;20651;-66
2023/05/14 09:26:30;;;;;;;2.30;1.60;;;;;;;19.41;66.22;100189.31;5051728;28;20187;-66
2023/05/14 09:29:00;;;;;;;3.57;1.50;;;;;;;19.41;66.06;100187.25;5031023;28;20187;-64
2023/05/14 09:31:26;;;;;;;2.13;1.50;;;;;;;19.40;66.46;100190.50;5033830;28;20589;-66
2023/05/14 09:33:52;;;;;;;2.20;1.53;;;;;;;19.41;66.36;100187.25;5035010;28;20414;-64
2023/05/14 09:36:18;;;;;;;4.00;1.70;;;;;;;19.40;66.18;100179.91;5017625;28;20184;-64
2023/05/14 09:38:43;;;;;;;2.20;1.50;;;;;;;19.41;66.19;100175.81;5034741;28;20163;-64
2023/05/14 09:41:08;;;;;;;2.20;1.60;;;;;;;19.42;66.50;100186.03;5018264;28;20275;-64
2023/05/14 09:43:34;;;;;;;2.30;1.57;;;;;;;19.41;66.23;100187.25;5044631;28;20188;-64
2023/05/14 09:45:59;;;;;;;2.03;1.50;;;;;;;19.42;66.48;100183.19;5052140;28;20203;-64
2023/05/14 09:48:25;;;;;;;2.60;1.87;;;;;;;19.43;66.22;100184.84;5035339;28;20175;-64
2023/05/14 09:50:53;;;;;;;2.10;1.40;;;;;;;19.43;66.14;100179.13;5018130;28;20805;-64
2023/05/14 09:53:19;;;;;;;2.53;1.67;;;;;;;19.42;66.11;100177.44;5051280;28;20322;-64
2023/05/14 09:55:44;;;;;;;2.13;1.67;;;;;;;19.42;66.34;100180.31;5033935;28;20410;-64
2023/05/14 09:58:10;;;;;;;2.63;1.63;;;;;;;19.44;66.39;100177.06;5017389;28;20189;-64
2023/05/14 10:00:36;;;;;;;3.03;1.80;;;;;;;19.43;65.96;100178.28;5034048;28;20188;-65
2023/05/14 10:03:04;;;;;;;2.10;1.40;;;;;;;19.43;66.39;100176.25;5034941;28;20171;-65
2023/05/14 10:05:30;;;;;;;2.13;1.40;;;;;;;19.43;66.34;100175.44;5033119;28;20462;-64
2023/05/14 10:07:56;;;;;;;2.23;1.37;;;;;;;19.43;66.43;100164.81;5034811;28;20941;-65
2023/05/14 10:10:23;;;;;;;2.20;1.30;;;;;;;19.42;66.28;100174.59;5046411;28;20527;-65
2023/05/14 10:12:55;;;;;;;1.90;1.30;;;;;;;19.44;65.96;100180.78;5034322;28;20327;-66
2023/05/14 10:15:48;;;;;;;2.83;1.63;;;;;;;19.43;66.18;100173.41;5049340;28;20564;-65
2023/05/14 10:18:16;;;;;;;2.07;1.40;;;;;;;19.43;66.27;100164.81;5048701;28;20537;-65
2023/05/14 10:20:42;;;;;;;2.03;1.37;;;;;;;19.44;66.29;100171.34;5050791;28;20937;-66
2023/05/14 10:23:07;;;;;;;2.40;1.67;;;;;;;19.44;66.20;100171.34;5051771;28;20425;-65
2023/05/14 10:25:36;;;;;;;2.00;1.43;;;;;;;19.44;66.29;100169.31;5032968;28;20183;-65
2023/05/14 10:28:02;;;;;;;1.80;1.30;;;;;;;19.44;66.26;100162.75;5033046;28;20171;-66
2023/05/14 10:30:27;;;;;;;2.10;1.40;;;;;;;19.44;66.48;100163.59;5029082;28;20474;-65
2023/05/14 10:33:10;;;;;;;2.03;1.27;;;;;;;19.44;66.12;100155.00;5048653;28;20222;-66
2023/05/14 10:36:00;;;;;;;3.23;1.60;;;;;;;19.45;66.16;100158.66;5034530;28;20176;-66
2023/05/14 10:38:31;;;;;;;2.10;1.30;;;;;;;19.44;66.35;100146.41;5050266;28;20552;-66
2023/05/14 10:40:59;;;;;;;2.37;1.80;;;;;;;19.45;66.04;100141.50;5050769;28;20799;-66
2023/05/14 10:43:26;;;;;;;9.23;2.00;;;;;;;19.45;66.18;100152.94;5049419;28;20438;-66
2023/05/14 10:45:52;;;;;;;2.40;1.80;;;;;;;19.45;66.23;100142.31;5049837;28;20518;-66
2023/05/14 10:48:18;;;;;;;2.10;1.50;;;;;;;19.44;66.07;100134.97;5052027;28;20422;-66
2023/05/14 10:50:43;;;;;;;2.20;1.73;;;;;;;19.47;65.96;100136.22;5050351;28;20215;-66
2023/05/14 10:53:12;;;;;;;2.30;1.50;;;;;;;19.46;66.39;100129.66;5050336;28;20554;-66
2023/05/14 10:55:37;;;;;;;2.10;1.40;;;;;;;19.45;65.97;100119.41;5051765;28;20175;-66
2023/05/14 10:58:03;;;;;;;2.13;1.50;;;;;;;19.47;66.15;100124.75;5050988;28;20434;-66
2023/05/14 11:00:28;;;;;;;2.23;1.50;;;;;;;19.46;65.98;100126.78;5051910;28;20285;-66
2023/05/14 11:02:54;;;;;;;1.97;1.50;;;;;;;19.47;66.15;100116.97;5033959;28;20180;-66
2023/05/14 11:05:20;;;;;;;3.47;1.47;;;;;;;19.47;66.03;100122.72;5033282;28;20235;-66
2023/05/14 11:07:49;;;;;;;2.30;1.50;;;;;;;19.48;66.14;100120.69;5050100;28;20489;-66
2023/05/14 11:10:15;;;;;;;2.33;1.50;;;;;;;19.48;66.50;100117.81;5012861;28;20752;-66
2023/05/14 11:12:42;;;;;;;2.80;1.30;;;;;;;19.48;66.13;100107.19;5052097;28;20983;-66
2023/05/14 11:15:09;;;;;;;2.50;1.60;;;;;;;19.47;66.15;100105.53;5016760;28;20984;-66
2023/05/14 11:17:35;;;;;;;1.90;1.40;;;;;;;19.47;66.16;100114.13;5033617;28;20418;-65
2023/05/14 11:20:01;;;;;;;2.43;1.53;;;;;;;19.48;66.15;100101.47;5052243;28;20464;-66